createdAt,value
2023-03-08T00:00:31.514Z,95831.59
2023-03-08T00:03:00.755Z,95837.59
2023-03-08T00:05:28.554Z,95849.97
2023-03-08T00:07:56.425Z,95848.09
2023-03-08T00:10:24.673Z,95845.75
2023-03-08T00:12:52.481Z,95846.59
2023-03-08T00:15:20.349Z,95849.41
2023-03-08T00:17:48.113Z,95838.47
2023-03-08T00:20:17.263Z,95849.50
2023-03-08T00:22:45.052Z,95850.44
2023-03-08T00:25:16.400Z,95846.16
2023-03-08T00:27:44.348Z,95845.25
2023-03-08T00:30:13.527Z,95847.84
2023-03-08T00:32:41.385Z,95824.25
2023-03-08T00:35:10.395Z,95833.47
2023-03-08T00:37:39.513Z,95834.06
2023-03-08T00:40:08.931Z,95829.53
2023-03-08T00:42:36.688Z,95825.13
2023-03-08T00:45:04.691Z,95826.72
2023-03-08T00:47:32.498Z,95825.88
2023-03-08T00:50:00.274Z,95816.31
2023-03-08T00:52:29.401Z,95827.38
2023-03-08T00:54:58.541Z,95829.25
2023-03-08T00:57:26.295Z,95825.72
2023-03-08T00:59:54.183Z,95823.88
2023-03-08T01:02:21.944Z,95827.25
2023-03-08T01:04:49.723Z,95829.06
2023-03-08T01:07:18.243Z,95830.56
2023-03-08T01:09:46.643Z,95821.66
2023-03-08T01:12:16.470Z,95824.84
2023-03-08T01:14:44.230Z,95811.91
2023-03-08T01:17:11.957Z,95822.84
2023-03-08T01:19:39.726Z,95817.53
2023-03-08T01:22:07.454Z,95817.34
2023-03-08T01:24:35.228Z,95808.53
2023-03-08T01:27:03.085Z,95818.88
2023-03-08T01:29:32.193Z,95815.34
2023-03-08T01:31:59.934Z,95808.53
2023-03-08T01:34:27.696Z,95805.00
2023-03-08T01:36:55.490Z,95793.22
2023-03-08T01:39:23.369Z,95792.81
2023-03-08T01:41:51.156Z,95785.81
2023-03-08T01:44:20.934Z,95779.94
2023-03-08T01:46:50.441Z,95788.13
2023-03-08T01:49:20.785Z,95785.28
2023-03-08T01:51:51.137Z,95781.47
2023-03-08T01:54:21.123Z,95788.25
2023-03-08T01:56:50.249Z,95783.75
2023-03-08T01:59:19.531Z,95771.38
2023-03-08T02:01:47.299Z,95767.59
2023-03-08T02:04:16.553Z,95762.25
2023-03-08T02:06:45.461Z,95763.00
2023-03-08T02:09:13.645Z,95762.91
2023-03-08T02:11:42.213Z,95760.91
2023-03-08T02:14:10.070Z,95749.53
2023-03-08T02:16:37.869Z,95744.19
2023-03-08T02:19:09.542Z,95733.50
2023-03-08T02:21:38.711Z,95752.03
2023-03-08T02:24:18.625Z,95736.72
2023-03-08T02:26:46.820Z,95724.81
2023-03-08T02:29:14.689Z,95707.50
2023-03-08T02:31:42.499Z,95728.72
2023-03-08T02:34:10.254Z,95730.25
2023-03-08T02:36:38.135Z,95739.78
2023-03-08T02:39:07.266Z,95739.78
2023-03-08T02:41:35.048Z,95736.84
2023-03-08T02:44:02.819Z,95731.81
2023-03-08T02:46:30.547Z,95726.84
2023-03-08T02:48:58.368Z,95728.00
2023-03-08T02:51:26.214Z,95716.88
2023-03-08T02:53:55.069Z,95719.47
2023-03-08T02:56:24.735Z,95718.72
2023-03-08T02:58:52.514Z,95699.34
2023-03-08T03:01:20.312Z,95713.13
2023-03-08T03:03:48.077Z,95709.63
2023-03-08T03:06:16.717Z,95715.44
2023-03-08T03:08:44.675Z,95713.81
2023-03-08T03:11:13.836Z,95717.47
2023-03-08T03:13:43.086Z,95712.34
2023-03-08T03:16:12.513Z,95697.25
2023-03-08T03:18:40.331Z,95699.59
2023-03-08T03:21:09.900Z,95698.41
2023-03-08T03:23:38.005Z,95706.09
2023-03-08T03:26:06.682Z,95701.84
2023-03-08T03:28:34.590Z,95701.75
2023-03-08T03:31:08.170Z,95689.53
2023-03-08T03:33:36.040Z,95694.56
2023-03-08T03:36:04.249Z,95695.47
2023-03-08T03:38:32.041Z,95692.25
2023-03-08T03:41:03.739Z,95694.16
2023-03-08T03:43:31.716Z,95687.72
2023-03-08T03:46:00.736Z,95691.69
2023-03-08T03:48:29.919Z,95688.47
2023-03-08T03:50:58.429Z,95687.72
2023-03-08T03:53:26.341Z,95675.59
2023-03-08T03:55:54.159Z,95687.13
2023-03-08T03:58:21.951Z,95682.13
2023-03-08T04:00:49.811Z,95681.53
2023-03-08T04:03:17.636Z,95677.84
2023-03-08T04:05:46.821Z,95677.84
2023-03-08T04:08:14.886Z,95669.50
2023-03-08T04:10:42.689Z,95671.19
2023-03-08T04:13:11.609Z,95673.00
2023-03-08T04:15:39.425Z,95674.53
2023-03-08T04:18:07.280Z,95665.09
2023-03-08T04:20:35.044Z,95657.47
2023-03-08T04:23:04.141Z,95662.91
2023-03-08T04:25:31.969Z,95663.19
2023-03-08T04:27:59.714Z,95662.50
2023-03-08T04:30:27.495Z,95663.41
2023-03-08T04:32:55.245Z,95658.25
2023-03-08T04:35:23.067Z,95654.75
2023-03-08T04:37:50.797Z,95644.94
2023-03-08T04:40:20.379Z,95657.47
2023-03-08T04:42:48.157Z,95653.31
2023-03-08T04:45:16.341Z,95656.06
2023-03-08T04:47:44.098Z,95652.63
2023-03-08T04:50:12.997Z,95647.31
2023-03-08T04:52:40.936Z,95644.38
2023-03-08T04:55:09.218Z,95641.44
2023-03-08T04:57:38.348Z,95647.19
2023-03-08T05:00:06.875Z,95638.41
2023-03-08T05:02:34.665Z,95637.56
2023-03-08T05:05:02.533Z,95641.16
2023-03-08T05:07:30.337Z,95618.88
2023-03-08T05:09:58.111Z,95619.03
2023-03-08T05:12:25.995Z,95624.06
2023-03-08T05:14:55.125Z,95624.22
2023-03-08T05:17:22.911Z,95612.53
2023-03-08T05:19:50.700Z,95606.34
2023-03-08T05:22:18.439Z,95592.00
2023-03-08T05:24:46.830Z,95604.41
2023-03-08T05:27:14.690Z,95594.16
2023-03-08T05:29:42.614Z,95587.19
2023-03-08T05:32:14.040Z,95584.81
2023-03-08T05:34:41.863Z,95584.72
2023-03-08T05:37:09.652Z,95572.13
2023-03-08T05:39:37.497Z,95571.09
2023-03-08T05:42:05.653Z,95569.06
2023-03-08T05:44:33.518Z,95566.59
2023-03-08T05:47:01.269Z,95565.41
2023-03-08T05:49:30.703Z,95553.34
2023-03-08T05:51:58.483Z,95561.22
2023-03-08T05:54:26.287Z,95554.34
2023-03-08T05:56:54.086Z,95556.94
2023-03-08T05:59:21.897Z,95552.72
2023-03-08T06:01:49.683Z,95559.66
2023-03-08T06:04:21.815Z,95565.06
2023-03-08T06:06:50.968Z,95549.72
2023-03-08T06:09:18.695Z,95531.28
2023-03-08T06:11:46.493Z,95536.38
2023-03-08T06:14:14.349Z,95542.41
2023-03-08T06:16:42.198Z,95551.25
2023-03-08T06:19:10.110Z,95555.94
2023-03-08T06:21:37.945Z,95555.28
2023-03-08T06:24:07.429Z,95545.44
2023-03-08T06:26:35.263Z,95543.63
2023-03-08T06:29:03.125Z,95532.44
2023-03-08T06:31:31.170Z,95539.34
2023-03-08T06:33:59.003Z,95538.53
2023-03-08T06:36:26.842Z,95526.56
2023-03-08T06:38:54.641Z,95538.38
2023-03-08T06:41:23.855Z,95523.00
2023-03-08T06:43:51.671Z,95516.69
2023-03-08T06:46:20.380Z,95524.94
2023-03-08T06:48:48.928Z,95516.41
2023-03-08T06:51:17.238Z,95517.91
2023-03-08T06:53:45.095Z,95524.59
2023-03-08T06:56:14.978Z,95508.97
2023-03-08T06:58:44.699Z,95496.53
2023-03-08T07:01:14.162Z,95520.97
2023-03-08T07:03:44.373Z,95504.03
2023-03-08T07:06:12.311Z,95500.69
2023-03-08T07:08:40.515Z,95498.09
2023-03-08T07:11:09.790Z,95488.84
2023-03-08T07:13:37.632Z,95485.53
2023-03-08T07:16:12.123Z,95482.19
2023-03-08T07:18:40.589Z,95473.19
2023-03-08T07:21:10.308Z,95464.03
2023-03-08T07:23:38.163Z,95395.53
2023-03-08T07:26:07.107Z,95453.22
2023-03-08T07:28:35.243Z,95442.53
2023-03-08T07:31:03.114Z,95437.63
2023-03-08T07:33:32.310Z,95437.72
2023-03-08T07:36:02.089Z,95428.38
2023-03-08T07:38:32.550Z,95424.09
2023-03-08T07:41:02.786Z,95420.13
2023-03-08T07:43:30.553Z,95404.88
2023-03-08T07:46:01.429Z,95405.31
2023-03-08T07:48:29.584Z,95399.84
2023-03-08T07:51:02.421Z,95394.13
2023-03-08T07:53:30.591Z,95397.69
2023-03-08T07:55:59.271Z,95391.81
2023-03-08T07:58:27.227Z,95387.47
2023-03-08T08:00:55.162Z,95361.91
2023-03-08T08:03:23.046Z,95384.22
2023-03-08T08:05:50.994Z,95368.53
2023-03-08T08:08:20.143Z,95373.88
2023-03-08T08:10:47.998Z,95365.03
2023-03-08T08:13:16.305Z,95360.78
2023-03-08T08:15:44.180Z,95360.88
2023-03-08T08:18:12.030Z,95359.19
2023-03-08T08:20:40.068Z,95358.28
2023-03-08T08:23:08.030Z,95363.59
2023-03-08T08:25:37.273Z,95360.88
2023-03-08T08:28:05.076Z,95345.28
2023-03-08T08:30:32.826Z,95332.81
2023-03-08T08:33:01.285Z,95335.81
2023-03-08T08:35:42.334Z,95322.78
2023-03-08T08:38:11.029Z,95316.13
2023-03-08T08:40:40.227Z,95308.38
2023-03-08T08:43:08.010Z,95304.50
2023-03-08T08:45:35.806Z,95297.09
2023-03-08T08:48:03.709Z,95294.69
2023-03-08T08:50:31.638Z,95276.34
2023-03-08T08:52:59.459Z,95296.75
2023-03-08T08:55:27.253Z,95276.38
2023-03-08T08:57:56.408Z,95255.91
2023-03-08T09:00:24.368Z,95277.53
2023-03-08T09:02:52.365Z,95270.72
2023-03-08T09:05:20.339Z,95273.84
2023-03-08T09:07:48.468Z,95272.00
2023-03-08T09:10:16.287Z,95273.84
2023-03-08T09:12:44.072Z,95274.22
2023-03-08T09:15:13.385Z,95255.75
2023-03-08T09:17:41.246Z,95270.34
2023-03-08T09:20:10.586Z,95266.00
2023-03-08T09:22:38.531Z,95267.31
2023-03-08T09:25:06.806Z,95250.50
2023-03-08T09:27:35.126Z,95265.19
2023-03-08T09:30:02.917Z,95273.84
2023-03-08T09:32:34.133Z,95268.69
2023-03-08T09:35:02.006Z,95255.19
2023-03-08T09:37:30.274Z,95257.03
2023-03-08T09:39:58.159Z,95218.84
2023-03-08T09:42:28.789Z,95257.59
2023-03-08T09:45:10.266Z,95260.72
2023-03-08T09:47:44.110Z,95254.47
2023-03-08T09:50:20.924Z,95249.75
2023-03-08T09:52:52.135Z,95248.09
2023-03-08T09:55:26.305Z,95245.03
2023-03-08T09:57:56.886Z,95231.56
2023-03-08T10:00:29.049Z,95232.19
2023-03-08T10:03:17.009Z,95233.56
2023-03-08T10:05:48.631Z,95217.59
2023-03-08T10:08:19.359Z,95218.41
2023-03-08T10:10:54.492Z,95225.09
2023-03-08T10:13:30.832Z,95222.50
2023-03-08T10:16:06.605Z,95214.00
2023-03-08T10:18:40.223Z,95209.91
2023-03-08T10:21:11.459Z,95185.56
2023-03-08T10:23:41.441Z,95183.41
2023-03-08T10:26:13.030Z,95199.47
2023-03-08T10:28:40.974Z,95192.53
2023-03-08T10:31:21.323Z,95188.19
2023-03-08T10:33:53.494Z,95177.09
2023-03-08T10:36:22.669Z,95170.38
2023-03-08T10:39:04.894Z,95168.09
2023-03-08T10:41:33.680Z,95163.66
2023-03-08T10:44:01.669Z,95163.03
2023-03-08T10:46:32.982Z,95149.06
2023-03-08T10:49:16.903Z,95148.66
2023-03-08T10:51:55.317Z,95143.78
2023-03-08T10:54:23.180Z,95142.38
2023-03-08T10:56:56.440Z,95131.50
2023-03-08T10:59:29.637Z,95138.19
2023-03-08T11:02:00.295Z,95144.50
2023-03-08T11:04:30.938Z,95125.63
2023-03-08T11:06:59.025Z,95145.50
2023-03-08T11:09:28.525Z,95159.63
2023-03-08T11:11:56.512Z,95135.00
2023-03-08T11:14:25.031Z,95145.09
2023-03-08T11:17:09.186Z,95166.69
2023-03-08T11:19:47.047Z,95074.53
2023-03-08T11:22:22.746Z,95130.44
2023-03-08T11:24:58.079Z,95160.41
2023-03-08T11:27:34.497Z,95171.69
2023-03-08T11:30:14.128Z,95093.84
2023-03-08T11:32:50.636Z,95120.75
2023-03-08T11:35:25.894Z,95098.66
2023-03-08T11:38:01.101Z,95116.00
2023-03-08T11:40:31.083Z,95103.38
2023-03-08T11:43:15.586Z,95102.88
2023-03-08T11:45:49.160Z,95108.13
2023-03-08T11:48:58.234Z,95112.69
2023-03-08T11:51:31.424Z,95104.22
2023-03-08T11:54:09.344Z,95090.75
2023-03-08T11:56:47.631Z,95086.19
2023-03-08T11:59:22.935Z,95103.38
2023-03-08T12:01:54.484Z,95102.03
2023-03-08T12:04:27.467Z,95100.06
2023-03-08T12:06:57.404Z,95096.13
2023-03-08T12:09:28.639Z,95096.25
2023-03-08T12:12:01.819Z,95080.38
2023-03-08T12:14:32.663Z,95079.34
2023-03-08T12:17:06.536Z,95095.09
2023-03-08T12:19:39.286Z,95077.25
2023-03-08T12:22:18.629Z,95079.25
2023-03-08T12:24:50.634Z,95086.38
2023-03-08T12:27:22.854Z,95092.38
2023-03-08T12:29:53.904Z,95081.84
2023-03-08T12:32:22.131Z,95085.84
2023-03-08T12:34:50.212Z,95074.16
2023-03-08T12:37:24.482Z,95069.69
2023-03-08T12:40:00.862Z,95058.06
2023-03-08T12:42:34.600Z,95067.78
2023-03-08T12:45:30.979Z,95066.66
2023-03-08T12:48:03.476Z,95071.22
2023-03-08T12:50:32.068Z,95059.44
2023-03-08T12:53:02.254Z,95060.34
2023-03-08T12:55:32.200Z,95059.28
2023-03-08T12:58:02.111Z,95056.00
2023-03-08T13:00:31.843Z,95061.28
2023-03-08T13:03:05.007Z,95063.63
2023-03-08T13:05:35.505Z,95058.25
2023-03-08T13:08:23.813Z,95063.56
2023-03-08T13:11:01.791Z,95052.97
2023-03-08T13:13:39.095Z,95058.28
2023-03-08T13:16:37.967Z,95050.38
2023-03-08T13:19:19.211Z,95051.75
2023-03-08T13:21:54.303Z,95048.06
2023-03-08T13:24:35.946Z,95045.03
2023-03-08T13:27:19.442Z,95047.22
2023-03-08T13:29:48.489Z,95051.13
2023-03-08T13:32:18.168Z,95039.63
2023-03-08T13:34:47.160Z,95039.72
2023-03-08T13:37:22.703Z,95075.91
2023-03-08T13:39:55.121Z,95066.34
2023-03-08T13:42:25.733Z,95067.38
2023-03-08T13:44:53.963Z,95053.34
2023-03-08T13:47:25.147Z,95057.81
2023-03-08T13:49:54.771Z,95061.22
2023-03-08T13:52:25.821Z,95048.56
2023-03-08T13:54:57.307Z,95053.91
2023-03-08T13:57:27.286Z,95055.31
2023-03-08T13:59:57.031Z,95054.28
2023-03-08T14:02:26.167Z,95045.34
2023-03-08T14:04:54.584Z,95017.16
2023-03-08T14:07:24.553Z,95043.06
2023-03-08T14:09:52.544Z,95028.28
2023-03-08T14:12:23.948Z,95039.88
2023-03-08T14:14:53.958Z,95039.16
2023-03-08T14:17:23.124Z,95043.88
2023-03-08T14:19:55.774Z,95028.75
2023-03-08T14:22:38.279Z,95030.88
2023-03-08T14:25:08.217Z,95031.34
2023-03-08T14:27:42.539Z,95021.38
2023-03-08T14:30:15.452Z,95022.19
2023-03-08T14:32:57.600Z,95006.19
2023-03-08T14:35:27.224Z,95024.00
2023-03-08T14:37:56.240Z,95019.41
2023-03-08T14:40:30.766Z,95004.19
2023-03-08T14:43:02.306Z,94999.59
2023-03-08T14:45:34.971Z,95003.50
2023-03-08T14:48:04.452Z,94968.25
2023-03-08T14:50:33.471Z,94996.16
2023-03-08T14:53:02.453Z,94992.78
2023-03-08T14:55:31.583Z,94981.06
2023-03-08T14:58:02.828Z,94979.41
2023-03-08T15:00:31.333Z,94986.00
2023-03-08T15:03:00.274Z,94971.84
2023-03-08T15:05:30.075Z,94974.91
2023-03-08T15:07:59.342Z,94966.16
2023-03-08T15:10:29.272Z,94978.31
2023-03-08T15:12:57.215Z,94963.03
2023-03-08T15:15:26.606Z,94964.22
2023-03-08T15:17:54.389Z,94974.63
2023-03-08T15:20:22.366Z,94966.47
2023-03-08T15:22:52.093Z,94943.75
2023-03-08T15:25:24.086Z,94954.13
2023-03-08T15:27:51.996Z,94954.97
2023-03-08T15:30:21.636Z,94951.53
2023-03-08T15:32:50.853Z,94959.00
2023-03-08T15:35:19.781Z,94956.00
2023-03-08T15:37:47.814Z,94960.84
2023-03-08T15:40:17.390Z,94955.91
2023-03-08T15:42:45.166Z,94955.91
2023-03-08T15:45:13.896Z,94961.09
2023-03-08T15:47:41.792Z,94958.63
2023-03-08T15:50:16.539Z,94939.00
2023-03-08T15:52:45.268Z,94956.38
2023-03-08T15:55:14.158Z,94965.84
2023-03-08T15:57:42.336Z,94959.09
2023-03-08T16:00:13.045Z,94951.53
2023-03-08T16:02:41.191Z,94954.97
2023-03-08T16:05:10.641Z,94946.47
2023-03-08T16:07:41.158Z,94958.06
2023-03-08T16:10:11.204Z,94960.72
2023-03-08T16:12:39.012Z,94956.78
2023-03-08T16:15:08.476Z,94943.09
2023-03-08T16:17:36.632Z,94956.78
2023-03-08T16:20:06.240Z,94944.50
2023-03-08T16:22:34.505Z,94939.81
2023-03-08T16:25:03.779Z,94954.81
2023-03-08T16:27:33.360Z,94943.25
2023-03-08T16:30:01.152Z,94953.72
2023-03-08T16:32:29.634Z,94948.59
2023-03-08T16:34:58.283Z,94941.31
2023-03-08T16:37:27.462Z,94956.50
2023-03-08T16:39:57.545Z,94950.91
2023-03-08T16:42:26.876Z,94953.13
2023-03-08T16:44:56.523Z,94948.69
2023-03-08T16:47:25.248Z,94945.28
2023-03-08T16:49:53.089Z,94936.13
2023-03-08T16:52:20.916Z,94940.81
2023-03-08T16:54:48.645Z,94941.66
2023-03-08T16:57:19.515Z,94940.81
2023-03-08T16:59:49.355Z,94940.53
2023-03-08T17:02:18.600Z,94933.41
2023-03-08T17:04:46.976Z,94942.19
2023-03-08T17:07:15.309Z,94940.69
2023-03-08T17:09:43.292Z,94945.09
2023-03-08T17:12:11.376Z,94967.22
2023-03-08T17:14:39.278Z,94998.56
2023-03-08T17:17:10.426Z,95023.56
2023-03-08T17:19:40.785Z,95005.22
2023-03-08T17:22:09.252Z,94973.88
2023-03-08T17:24:36.980Z,94959.75
2023-03-08T17:27:06.943Z,94962.78
2023-03-08T17:29:34.656Z,94974.06
2023-03-08T17:32:02.493Z,94968.72
2023-03-08T17:34:31.630Z,94968.59
2023-03-08T17:36:59.388Z,94964.22
2023-03-08T17:39:27.190Z,94970.38
2023-03-08T17:41:55.041Z,94961.34
2023-03-08T17:44:22.822Z,94970.00
2023-03-08T17:46:50.591Z,94969.06
2023-03-08T17:49:23.280Z,94960.28
2023-03-08T17:51:53.094Z,94950.63
2023-03-08T17:54:21.383Z,94950.25
2023-03-08T17:56:49.187Z,94939.50
2023-03-08T17:59:18.234Z,94965.78
2023-03-08T18:01:49.085Z,94945.56
2023-03-08T18:04:16.881Z,94971.13
2023-03-08T18:06:44.934Z,94973.69
2023-03-08T18:09:16.014Z,94981.28
2023-03-08T18:11:44.385Z,94993.81
2023-03-08T18:14:13.531Z,94984.97
2023-03-08T18:16:42.611Z,94991.84
2023-03-08T18:19:11.799Z,94993.25
2023-03-08T18:21:41.526Z,94987.91
2023-03-08T18:24:17.859Z,94995.13
2023-03-08T18:26:47.218Z,94999.22
2023-03-08T18:29:15.031Z,95005.66
2023-03-08T18:31:42.932Z,95001.38
2023-03-08T18:34:10.902Z,94995.75
2023-03-08T18:36:39.178Z,95010.69
2023-03-08T18:39:08.497Z,95013.09
2023-03-08T18:41:37.630Z,95010.75
2023-03-08T18:44:05.596Z,95016.41
2023-03-08T18:46:34.209Z,95011.31
2023-03-08T18:49:03.807Z,95019.59
2023-03-08T18:51:32.969Z,95009.16
2023-03-08T18:54:01.243Z,95016.00
2023-03-08T18:56:30.088Z,95008.47
2023-03-08T18:59:00.802Z,95016.84
2023-03-08T19:01:31.342Z,95010.94
2023-03-08T19:04:00.197Z,95010.13
2023-03-08T19:06:28.732Z,95019.00
2023-03-08T19:08:56.810Z,95017.00
2023-03-08T19:11:26.390Z,95006.69
2023-03-08T19:13:54.328Z,95007.19
2023-03-08T19:16:25.524Z,95006.78
2023-03-08T19:18:56.055Z,94988.41
2023-03-08T19:21:25.260Z,94993.19
2023-03-08T19:23:53.467Z,94995.50
2023-03-08T19:26:48.461Z,94983.06
2023-03-08T19:29:18.202Z,94985.69
2023-03-08T19:31:50.431Z,94987.09
2023-03-08T19:34:19.152Z,94967.00
2023-03-08T19:36:48.059Z,94980.88
2023-03-08T19:39:17.190Z,94980.75
2023-03-08T19:41:45.346Z,94984.91
2023-03-08T19:44:13.103Z,94974.47
2023-03-08T19:46:41.114Z,94978.63
2023-03-08T19:49:13.163Z,94954.13
2023-03-08T19:51:40.928Z,94977.78
2023-03-08T19:54:09.021Z,94984.38
2023-03-08T19:56:37.137Z,94990.72
2023-03-08T19:59:04.969Z,94993.22
2023-03-08T20:01:33.042Z,94994.03
2023-03-08T20:04:00.868Z,94997.59
2023-03-08T20:06:32.194Z,94989.91
2023-03-08T20:09:00.874Z,94997.59
2023-03-08T20:11:28.661Z,94992.09
2023-03-08T20:13:56.956Z,95004.34
2023-03-08T20:16:25.406Z,95004.22
2023-03-08T20:18:55.514Z,95004.22
2023-03-08T20:21:24.673Z,94999.81
2023-03-08T20:23:56.204Z,95000.09
2023-03-08T20:26:24.224Z,94998.44
2023-03-08T20:28:52.688Z,95003.53
2023-03-08T20:31:20.877Z,95005.16
2023-03-08T20:33:48.668Z,94999.81
2023-03-08T20:36:16.571Z,94998.03
2023-03-08T20:38:44.412Z,95008.59
2023-03-08T20:41:16.805Z,95019.75
2023-03-08T20:43:45.736Z,95026.50
2023-03-08T20:46:15.153Z,95010.69
2023-03-08T20:48:44.740Z,95007.28
2023-03-08T20:51:14.265Z,94997.06
2023-03-08T20:53:42.392Z,94993.50
2023-03-08T20:56:14.328Z,94993.22
2023-03-08T20:58:42.418Z,94982.50
2023-03-08T21:01:11.326Z,95003.59
2023-03-08T21:03:39.199Z,94992.19
2023-03-08T21:06:12.246Z,94985.31
2023-03-08T21:08:40.041Z,94980.34
2023-03-08T21:11:07.811Z,94978.16
2023-03-08T21:13:36.998Z,94969.91
2023-03-08T21:16:06.126Z,94980.63
2023-03-08T21:18:34.031Z,94979.69
2023-03-08T21:21:01.834Z,94979.81
2023-03-08T21:23:29.695Z,94984.06
2023-03-08T21:26:01.548Z,94969.09
2023-03-08T21:28:29.298Z,94958.38
2023-03-08T21:30:58.500Z,94960.31
2023-03-08T21:33:26.396Z,94966.78
2023-03-08T21:35:54.198Z,94956.03
2023-03-08T21:38:24.414Z,94955.91
2023-03-08T21:40:52.516Z,94950.31
2023-03-08T21:43:20.299Z,94946.59
2023-03-08T21:45:48.064Z,94950.19
2023-03-08T21:48:17.203Z,94950.44
2023-03-08T21:50:44.976Z,94948.66
2023-03-08T21:53:12.772Z,94934.75
2023-03-08T21:55:40.755Z,94938.31
2023-03-08T21:58:09.105Z,94936.41
2023-03-08T22:00:36.976Z,94935.50
2023-03-08T22:03:05.187Z,94932.72
2023-03-08T22:05:34.397Z,94931.19
2023-03-08T22:08:02.180Z,94928.56
2023-03-08T22:10:29.998Z,94927.31
2023-03-08T22:12:57.778Z,94924.97
2023-03-08T22:15:25.684Z,94924.41
2023-03-08T22:17:53.971Z,94930.63
2023-03-08T22:20:23.064Z,94931.16
2023-03-08T22:22:52.284Z,94936.25
2023-03-08T22:25:20.214Z,94927.84
2023-03-08T22:27:48.033Z,94930.34
2023-03-08T22:30:16.061Z,94929.50
2023-03-08T22:32:43.828Z,94917.69
2023-03-08T22:35:12.922Z,94900.38
2023-03-08T22:37:40.910Z,94904.63
2023-03-08T22:40:13.045Z,94891.97
2023-03-08T22:42:41.378Z,94881.50
2023-03-08T22:45:10.106Z,94897.34
2023-03-08T22:47:37.889Z,94881.28
2023-03-08T22:50:06.246Z,94883.72
2023-03-08T22:52:34.105Z,94881.94
2023-03-08T22:55:01.977Z,94881.94
2023-03-08T22:57:31.234Z,94876.31
2023-03-08T22:59:59.774Z,94877.72
2023-03-08T23:02:28.482Z,94868.50
2023-03-08T23:04:57.746Z,94867.41
2023-03-08T23:07:25.585Z,94859.56
2023-03-08T23:09:53.393Z,94861.34
2023-03-08T23:12:21.185Z,94859.56
2023-03-08T23:14:50.306Z,94856.97
2023-03-08T23:17:18.999Z,94859.44
2023-03-08T23:19:46.785Z,94861.22
2023-03-08T23:22:14.544Z,94849.25
2023-03-08T23:24:42.340Z,94841.97
2023-03-08T23:27:10.403Z,94839.09
2023-03-08T23:29:38.456Z,94847.59
2023-03-08T23:32:08.765Z,94839.09
2023-03-08T23:34:37.118Z,94839.34
2023-03-08T23:37:04.910Z,94834.69
2023-03-08T23:39:33.910Z,94838.28
2023-03-08T23:42:01.827Z,94842.38
2023-03-08T23:44:29.615Z,94822.03
2023-03-08T23:46:57.426Z,94837.41
2023-03-08T23:49:26.691Z,94840.84
2023-03-08T23:51:54.469Z,94836.31
2023-03-08T23:54:22.601Z,94836.06
2023-03-08T23:56:50.528Z,94824.78
2023-03-08T23:59:20.273Z,94815.94
